Skip Navigation LinksHome page > Weather > Current weather Skip Navigation Links

Current Weather

Phoenix Sky Harbor Intl, Phoenix, Ariz.

For information only: do not use for flight planning or navigation.
Latest weather
Observation time Monday, June 21, 2021 4:51 PM MST
Local time Monday, June 21, 2021 5:51 PM MST
Flight conditions Visual Meteorological Conditions
Winds
Wind direction West (280°)
Wind speed 14 mph
Wind gusting to 20 mph
Visibility 10 mi.
Sky condition
Ceiling unlimited
Cloud layer few clouds 25,000 ft.
Temperature 108°F
Dewpoint 40°F
Altimeter 29.76 in.Hg
Pressure change last 3 hours0.07 in.Hg
Pressure falling more slowly
Derived measurements
Relative humidity 10%
Heat index 108°F
Density altitude 4486 ft.
Sea-level pressure 29.69 in.Hg
Climate data
Temperature minimum, last 6 hours 96°F
Temperature maximum, last 6 hours 109°F
Remarks
Automated weather observing station with precipitation discriminator.
METAR KPHX 212351Z 28012G17KT 10SM FEW250 42/04 A2976 RMK AO2 SLP053 T04220044 10428 20356 56025

Settings

Location code

InnerDrive.Weather 4.0.6770.0 Release CLR 4.0.30319.42000
Copyright ©2018 Inner Drive Technology. All rights reserved. Portions Copyright ©1986-2018 David Braverman.

Find weather

Site navigation


Skip Navigation Links

Place info

Page info

PayPal - The safer, easier way to pay online!

Return home.

Copyright ©2021 Inner Drive Technology. Purveyors of fine, hand-crafted computer software. Page printed 2021-06-22T00:51:31 UTC.